Bookmark and Share
Track history (hours):
 

Drifting buoy 15909

Last reported at 2013-Jun-03 22:05 UTC. Time now 2014-Apr-24 06:11 UTC.
Position S 30°46' W 028°46'.
Warning: this ship's position is months out of date.

Water temperature 20.0 ° C

NotesDate/timePositionNaut miles runAvg speedWind from/ knotsBaromVisibWave heightAir tempDewpointWater temp
2013-Jun-03 22:05S 30°46' W 028°46'1 0.8 20.0
2013-Jun-03 21:25S 30°46' W 028°46'0 0.0 20.0
2013-Jun-03 20:40S 30°46' W 028°46'0 0.0
2013-Jun-03 19:43S 30°46' W 028°46'1 1.6 20.0
2013-Jun-03 19:06S 30°46' W 028°45'1 0.6 20.0
2013-Jun-03 18:05S 30°46' W 028°46'1 0.6 20.1
2013-Jun-03 16:24S 30°46' W 028°44'1 1.2 20.1
2013-Jun-03 15:58S 30°46' W 028°44'0 0.1 20.2
2013-Jun-03 11:44S 30°46' W 028°44'0 0.0 20.0
2013-Jun-03 10:44S 30°46' W 028°44'0 0.8 20.0
2013-Jun-03 10:11S 30°46' W 028°44'0 0.9 20.0
2013-Jun-03 09:49S 30°46' W 028°44'0 0.2 20.0
2013-Jun-03 08:29S 30°46' W 028°44'1 0.4 20.0
2013-Jun-03 06:53S 30°46' W 028°45'221.1 20.0
2013-Jun-03 06:47S 30°44' W 028°44'0 0.0 20.0
2013-Jun-03 03:55S 30°44' W 028°44'3 1.2 20.1
2013-Jun-03 01:49S 30°43' W 028°41'0 0.0 20.1
2013-Jun-03 00:25S 30°43' W 028°41'0 1.5 20.1
2013-Jun-03 00:13S 30°43' W 028°41'1 1.0 20.1
2013-Jun-02 23:26S 30°43' W 028°40'2 0.9 20.1
2013-Jun-02 21:04S 30°43' W 028°38'1 0.2 20.1
2013-Jun-02 17:46S 30°44' W 028°37'1 1.0 20.1
2013-Jun-02 16:36S 30°43' W 028°36'0 0.1 20.1
2013-Jun-02 14:53S 30°44' W 028°36'112.6 20.1
2013-Jun-02 14:47S 30°44' W 028°34'0 0.1 20.1
2013-Jun-02 12:37S 30°44' W 028°35'0 0.0
2013-Jun-02 11:56S 30°44' W 028°35'0 1.8 20.0
2013-Jun-02 11:52S 30°44' W 028°34'2 2.0
2013-Jun-02 11:03S 30°45' W 028°33'110.3 20.0
2013-Jun-02 10:58S 30°44' W 028°33'0 0.5 20.0
2013-Jun-02 10:12S 30°44' W 028°34'1 0.3 20.0
2013-Jun-02 07:27S 30°44' W 028°33'1 0.4 20.0
2013-Jun-02 04:08S 30°44' W 028°32'2 3.8 20.0
2013-Jun-02 03:41S 30°44' W 028°30'3 0.4 20.0
2013-Jun-01 20:49S 30°45' W 028°27'1 1.2 20.1
2013-Jun-01 19:50S 30°45' W 028°26'212.3 20.1
2013-Jun-01 19:40S 30°47' W 028°24'0 0.0 20.1
2013-Jun-01 16:44S 30°47' W 028°24'1 2.4 20.2
2013-Jun-01 16:18S 30°48' W 028°24'0 0.0 20.1
2013-Jun-01 15:07S 30°48' W 028°24'1 0.5 20.1
2013-Jun-01 12:10S 30°49' W 028°23'1 1.1 20.0
2013-Jun-01 11:27S 30°49' W 028°23'1 0.5 20.0
2013-Jun-01 09:35S 30°50' W 028°24'0 0.3 20.0
2013-Jun-01 07:59S 30°50' W 028°23'1 0.3 19.9
2013-Jun-01 04:13S 30°51' W 028°22'2 0.6 19.9
2013-Jun-01 00:54S 30°52' W 028°20'0 3.9 19.9
2013-Jun-01 00:48S 30°52' W 028°21'325.4 19.9
2013-Jun-01 00:41S 30°55' W 028°19'0 0.0 19.9
2013-May-31 21:17S 30°55' W 028°19'0 0.0 19.9
2013-May-31 20:14S 30°55' W 028°19'1 2.6 19.9
2013-May-31 19:41S 30°57' W 028°19'0 0.0 19.9
2013-May-31 18:14S 30°57' W 028°19'1 5.1 19.9
2013-May-31 17:57S 30°58' W 028°19'1 1.1 19.9
2013-May-31 16:56S 30°58' W 028°20'1 0.2 19.9
2013-May-31 10:04S 30°57' W 028°22'2 1.5
2013-May-31 08:56S 30°56' W 028°20'2 3.7
2013-May-31 08:29S 30°57' W 028°22'0 0.0 20.0
2013-May-31 07:55S 30°57' W 028°22'2 0.6 20.0
2013-May-31 04:28S 30°56' W 028°20'2 0.6 20.1
2013-May-31 01:06S 30°54' W 028°19'313.9 20.1
2013-May-31 00:55S 30°52' W 028°17'0 0.0 20.1
2013-May-30 23:36S 30°52' W 028°17'0 0.0
2013-May-30 21:50S 30°52' W 028°17'0 0.0
2013-May-30 21:38S 30°52' W 028°17'3 0.8
2013-May-30 18:33S 30°51' W 028°14'3 1.9 20.1
2013-May-30 17:00S 30°50' W 028°11'1 5.3
2013-May-30 16:44S 30°50' W 028°13'1 1.1 20.1
2013-May-30 15:27S 30°50' W 028°11'3 0.6 20.1
2013-May-30 10:25S 30°50' W 028°08'1 0.7
2013-May-30 09:00S 30°49' W 028°07'1 0.7
2013-May-30 07:21S 30°49' W 028°06'5 0.7 19.9
2013-May-30 01:14S 30°48' W 028°00'0 0.0 19.9
2013-May-30 01:11S 30°48' W 028°00'4 1.1 19.9
2013-May-29 21:02S 30°47' W 027°56'1 0.5 20.0
2013-May-29 18:29S 30°47' W 027°54'0 0.3
2013-May-29 17:43S 30°47' W 027°54'4 0.5 20.3
2013-May-29 10:49S 30°45' W 027°50'1 0.3 20.7
2013-May-29 07:54S 30°45' W 027°50'2 1.4 20.6
2013-May-29 06:09S 30°44' W 027°47'3 0.4 20.6
2013-May-28 23:42S 30°42' W 027°44'4 0.9 20.6
2013-May-28 19:50S 30°41' W 027°40'2 1.1 20.6
2013-May-28 17:55S 30°41' W 027°38'1 1.5 20.5
2013-May-28 17:28S 30°42' W 027°37'1 0.4 20.6
2013-May-28 15:50S 30°42' W 027°37'2 1.2 20.7
2013-May-28 14:04S 30°41' W 027°34'2 0.5 20.6
2013-May-28 10:15S 30°42' W 027°32'0 0.4 20.3
2013-May-28 09:59S 30°42' W 027°32'1 0.5 20.3
2013-May-28 08:25S 30°41' W 027°31'1 0.8 20.3
2013-May-28 07:26S 30°41' W 027°31'0 0.5
2013-May-28 06:40S 30°41' W 027°30'2 6.0 20.3
2013-May-28 06:23S 30°39' W 027°30'1 0.4 20.4
2013-May-28 02:58S 30°38' W 027°29'0 0.0 20.4
2013-May-28 01:38S 30°38' W 027°29'2 1.0 20.4
2013-May-27 23:44S 30°39' W 027°27'0 0.4 20.4
2013-May-27 22:57S 30°39' W 027°26'1 1.0 20.4
2013-May-27 22:13S 30°39' W 027°26'2 0.9 20.4
2013-May-27 20:14S 30°39' W 027°24'1 0.8 20.5
2013-May-27 18:59S 30°40' W 027°23'0 3.9 20.6
2013-May-27 18:53S 30°40' W 027°23'1 0.9 20.6
2013-May-27 17:37S 30°41' W 027°22'0 0.5 20.6
2013-May-27 17:15S 30°41' W 027°22'2 1.4 20.6
2013-May-27 16:01S 30°41' W 027°20'3 1.4 20.6
2013-May-27 14:14S 30°44' W 027°22'1 0.1 20.6
2013-May-27 08:56S 30°43' W 027°23'1 0.5 20.6
2013-May-27 07:48S 30°43' W 027°23'0 0.0
2013-May-27 07:14S 30°43' W 027°23'1 0.3
2013-May-27 03:07S 30°44' W 027°23'0 0.0
2013-May-27 01:47S 30°44' W 027°23'1 1.7 38.0
2013-May-27 00:56S 30°44' W 027°21'0 0.0 20.8
2013-May-27 00:11S 30°44' W 027°21'1 0.5 20.8
2013-May-26 22:29S 30°44' W 027°20'1 0.7 20.8
2013-May-26 20:36S 30°45' W 027°19'148.3 20.9
2013-May-26 20:35S 30°45' W 027°20'2 1.6
2013-May-26 19:12S 30°47' W 027°19'1 5.0 20.9
2013-May-26 19:04S 30°46' W 027°19'1 8.0 20.9
2013-May-26 18:59S 30°47' W 027°19'1 1.1 20.9
2013-May-26 17:41S 30°46' W 027°17'0 0.0 21.0
2013-May-26 16:08S 30°46' W 027°17'3 1.5 21.0
2013-May-26 14:23S 30°48' W 027°19'1 0.2 21.0
2013-May-26 11:42S 30°49' W 027°19'0 0.0
2013-May-26 11:39S 30°49' W 027°19'0 0.4
2013-May-26 10:53S 30°49' W 027°19'0 0.3 21.2
2013-May-26 09:22S 30°49' W 027°19'0 0.0
2013-May-26 09:12S 30°49' W 027°19'1 0.4
2013-May-26 07:44S 30°49' W 027°20'4 0.7 21.2
2013-May-26 01:57S 30°45' W 027°20'2 0.6
2013-May-25 22:45S 30°44' W 027°21'1 1.3
2013-May-25 21:56S 30°45' W 027°21'1 1.3 20.5
2013-May-25 21:07S 30°44' W 027°21'112.6 20.5
2013-May-25 21:00S 30°45' W 027°22'0 0.0 20.5
2013-May-25 19:31S 30°45' W 027°22'0 1.4 20.6
2013-May-25 19:21S 30°45' W 027°22'116.5 20.6
2013-May-25 19:17S 30°46' W 027°22'0 0.0 20.6
2013-May-25 17:57S 30°46' W 027°22'0 0.0 20.5
2013-May-25 17:48S 30°46' W 027°22'0 0.0 20.5
2013-May-25 16:22S 30°46' W 027°22'1 1.8 20.6
2013-May-25 15:59S 30°47' W 027°22'2 1.2 20.6
2013-May-25 14:34S 30°48' W 027°22'0 0.1 20.7
2013-May-25 12:04S 30°49' W 027°22'0 0.0 20.9
2013-May-25 11:55S 30°49' W 027°22'1 0.7 20.9
2013-May-25 10:25S 30°50' W 027°23'0 0.3 20.9
2013-May-25 09:55S 30°50' W 027°23'2 1.5 20.9
2013-May-25 08:32S 30°52' W 027°24'0 0.0 21.0
2013-May-25 08:16S 30°52' W 027°24'1 0.3 21.0
2013-May-25 03:52S 30°53' W 027°24'0 0.6 21.1
2013-May-25 03:32S 30°53' W 027°24'2 0.6 21.2
2013-May-25 00:33S 30°54' W 027°25'0 0.4 21.2
2013-May-24 23:59S 30°54' W 027°25'0 0.2 21.2
2013-May-24 23:14S 30°54' W 027°25'   21.2

Dump ship's entire track history

sailing weather and tide predictions

Buoy 15909